Time;durP1;ratioP1;P1;durP2;ratioP2;P2;SDS_P1;SDS_P2;PMS_P1;PMS_P2;Temp;Humidity;BMP_temperature;BMP_pressure;BME280_temperature;BME280_humidity;BME280_pressure;Samples;Min_cycle;Max_cycle;Signal;HPM_P1;HPM_P2
2022/08/11 00:02:26;;;;;;;1.58;1.48;;;;;;;21.47;37.21;97148.56;6214024;23;20052;-78
2022/08/11 00:04:56;;;;;;;2.88;1.80;;;;;;;21.45;37.10;97141.84;6220108;23;20025;-77
2022/08/11 00:07:25;;;;;;;2.03;1.30;;;;;;;21.44;37.35;97137.59;6241025;23;20015;-78
2022/08/11 00:09:54;;;;;;;3.30;1.80;;;;;;;21.43;37.44;97135.97;6233059;23;20096;-78
2022/08/11 00:12:22;;;;;;;4.25;1.65;;;;;;;21.43;37.58;97142.13;6213817;23;20084;-78
2022/08/11 00:14:58;;;;;;;1.90;1.80;;;;;;;21.46;37.58;97140.81;6214436;23;20410;-78
2022/08/11 00:17:33;;;;;;;1.98;1.88;;;;;;;21.45;37.45;97139.19;6214818;23;20023;-78
2022/08/11 00:20:06;;;;;;;2.30;1.77;;;;;;;21.44;37.56;97132.28;6214348;23;20031;-78
2022/08/11 00:22:42;;;;;;;2.85;1.50;;;;;;;21.43;37.54;97133.31;6216123;23;20035;-78
2022/08/11 00:25:12;;;;;;;2.05;1.90;;;;;;;21.46;37.57;97135.50;6215802;23;20025;-78
2022/08/11 00:27:40;;;;;;;2.60;1.80;;;;;;;21.48;39.18;97130.78;6216359;23;20151;-78
2022/08/11 00:30:10;;;;;;;1.85;1.52;;;;;;;21.52;39.52;97126.59;6216004;23;20095;-78
2022/08/11 00:32:42;;;;;;;2.10;1.90;;;;;;;21.56;40.31;97130.41;6216204;23;20027;-78
2022/08/11 00:35:12;;;;;;;2.03;1.83;;;;;;;21.56;39.43;97133.06;6216159;23;20095;-78
2022/08/11 00:38:01;;;;;;;1.80;1.63;;;;;;;21.51;38.02;97136.41;6215750;23;20028;-78
2022/08/11 00:40:36;;;;;;;2.65;1.83;;;;;;;21.48;38.10;97136.09;6215411;23;20047;-78
2022/08/11 00:43:16;;;;;;;2.92;2.30;;;;;;;21.50;40.46;97142.75;6216297;23;20067;-78
2022/08/11 00:46:05;;;;;;;2.45;2.10;;;;;;;21.53;40.96;97136.16;6216289;23;20361;-78
2022/08/11 00:48:44;;;;;;;1.83;1.67;;;;;;;21.56;41.01;97141.00;6216247;23;20059;-78
2022/08/11 00:51:20;;;;;;;2.30;2.10;;;;;;;21.56;41.36;97141.81;6215759;23;20043;-78
2022/08/11 00:54:02;;;;;;;2.72;1.95;;;;;;;21.56;40.76;97151.63;6216172;23;20055;-78
2022/08/11 00:57:10;;;;;;;2.80;1.90;;;;;;;21.52;40.00;97138.03;6215903;23;20472;-78
2022/08/11 01:00:10;;;;;;;2.35;2.15;;;;;;;21.47;39.95;97140.59;6207566;23;20032;-78
2022/08/11 01:03:16;;;;;;;2.33;1.88;;;;;;;21.38;38.96;97140.13;6216127;23;20099;-78
2022/08/11 01:06:03;;;;;;;5.03;3.13;;;;;;;21.28;38.82;97141.78;6216017;23;20025;-78
2022/08/11 01:09:17;;;;;;;2.72;1.90;;;;;;;21.15;38.59;97137.56;6216135;23;20025;-78
2022/08/11 01:12:25;;;;;;;3.72;2.20;;;;;;;21.04;39.41;97138.41;6215708;23;20025;-78
2022/08/11 01:15:29;;;;;;;3.97;2.33;;;;;;;20.96;40.89;97132.41;6215443;23;20013;-78
2022/08/11 01:18:29;;;;;;;3.40;1.77;;;;;;;20.90;39.55;97138.69;6215523;23;20507;-78
2022/08/11 01:21:15;;;;;;;2.13;1.90;;;;;;;20.86;41.30;97139.38;6215634;23;20056;-78
2022/08/11 01:24:29;;;;;;;2.00;1.83;;;;;;;20.85;40.97;97135.91;6215881;23;20076;-78
2022/08/11 01:27:33;;;;;;;3.00;2.08;;;;;;;20.81;40.11;97145.38;6216008;23;20020;-78
2022/08/11 01:30:15;;;;;;;3.58;2.38;;;;;;;20.73;39.86;97143.09;6211953;23;20453;-78
2022/08/11 01:33:11;;;;;;;2.17;1.95;;;;;;;20.70;40.96;97146.19;6215489;23;20103;-78
2022/08/11 01:36:16;;;;;;;2.05;1.70;;;;;;;20.67;40.81;97149.31;6215773;23;20056;-78
2022/08/11 01:39:21;;;;;;;5.88;2.30;;;;;;;20.60;40.03;97143.31;6215342;23;20024;-78
2022/08/11 01:45:07;;;;;;;5.40;2.20;;;;;;;20.50;40.29;97134.09;6215061;23;20056;-77
2022/08/11 01:47:51;;;;;;;2.72;1.95;;;;;;;20.44;40.24;97129.72;6215323;23;20511;-78
2022/08/11 01:50:31;;;;;;;2.10;1.83;;;;;;;20.38;40.42;97128.00;6215162;23;20017;-78
2022/08/11 01:53:12;;;;;;;2.30;2.10;;;;;;;20.37;41.52;97129.84;6216011;23;20103;-78
2022/08/11 01:55:49;;;;;;;3.45;2.10;;;;;;;20.40;42.98;97120.63;6215707;23;20402;-78
2022/08/11 01:58:26;;;;;;;2.80;1.85;;;;;;;20.42;42.28;97128.34;6215499;23;20021;-78
2022/08/11 02:01:22;;;;;;;2.25;1.90;;;;;;;20.39;42.70;97121.66;6214707;23;20087;-78
2022/08/11 02:03:57;;;;;;;2.83;2.33;;;;;;;20.37;41.08;97119.22;6215057;23;20016;-77
2022/08/11 02:06:54;;;;;;;2.35;2.15;;;;;;;20.34;41.76;97124.22;6215440;23;20400;-78
2022/08/11 02:09:40;;;;;;;2.85;2.30;;;;;;;20.34;41.79;97118.91;6214962;23;20491;-78
2022/08/11 02:12:26;;;;;;;4.38;2.38;;;;;;;20.27;41.02;97118.19;6214799;23;20555;-77
2022/08/11 02:15:07;;;;;;;2.38;2.05;;;;;;;20.23;41.54;97122.38;6215072;23;20021;-78
2022/08/11 02:17:53;;;;;;;1.95;1.85;;;;;;;20.23;43.39;97117.88;6215715;23;20024;-77
2022/08/11 02:23:39;;;;;;;2.20;2.00;;;;;;;20.16;43.20;97111.88;6215331;23;20357;-78
2022/08/11 02:26:35;;;;;;;2.50;1.98;;;;;;;20.14;43.77;97103.38;6214751;23;20073;-77
2022/08/11 02:29:14;;;;;;;3.22;2.30;;;;;;;20.14;43.88;97104.16;6215333;23;20076;-77
2022/08/11 02:35:01;;;;;;;4.30;2.33;;;;;;;20.12;42.00;97105.44;6214651;23;20559;-78
2022/08/11 02:37:43;;;;;;;3.47;2.47;;;;;;;20.12;43.12;97103.59;6214742;23;20052;-77
2022/08/11 02:40:21;;;;;;;2.45;2.25;;;;;;;20.08;41.85;97099.78;6214820;23;20076;-77
2022/08/11 02:42:57;;;;;;;2.97;2.60;;;;;;;20.03;43.25;97102.31;6215193;23;20063;-77
2022/08/11 02:45:53;;;;;;;2.72;2.30;;;;;;;20.03;42.46;97102.31;6214494;23;20016;-77
2022/08/11 02:51:32;;;;;;;4.78;2.20;;;;;;;19.94;43.55;97106.31;6214561;23;20408;-77
2022/08/11 02:54:11;;;;;;;4.50;2.60;;;;;;;19.92;42.84;97108.41;6214904;23;20052;-77
2022/08/11 02:56:49;;;;;;;3.35;2.35;;;;;;;19.91;42.92;97098.84;6214731;23;20035;-77
2022/08/11 03:02:22;;;;;;;5.05;3.45;;;;;;;19.88;42.85;97104.63;6214556;23;20099;-78
2022/08/11 03:05:02;;;;;;;2.97;2.30;;;;;;;19.86;43.43;97110.13;6214597;23;20021;-78
2022/08/11 03:07:34;;;;;;;3.60;2.38;;;;;;;19.85;44.83;97105.84;6214477;23;20071;-78
2022/08/11 03:10:10;;;;;;;3.53;2.55;;;;;;;19.88;44.62;97104.63;6214488;23;20024;-78
2022/08/11 03:18:37;;;;;;;4.70;2.50;;;;;;;19.75;42.38;97109.06;6214120;23;20056;-77
2022/08/11 03:21:10;;;;;;;6.22;2.22;;;;;;;19.65;42.39;97110.63;6214137;23;20104;-78
2022/08/11 03:23:48;;;;;;;2.10;1.98;;;;;;;19.58;42.63;97110.72;6214708;23;20083;-77
2022/08/11 03:26:27;;;;;;;2.28;2.08;;;;;;;19.53;42.54;97108.78;6214446;23;20024;-77
2022/08/11 03:29:04;;;;;;;3.08;2.50;;;;;;;19.50;42.57;97116.34;6214565;23;20024;-76
2022/08/11 03:31:36;;;;;;;3.17;2.08;;;;;;;19.46;42.76;97117.81;6214476;23;20025;-77
2022/08/11 03:34:06;;;;;;;2.50;2.30;;;;;;;19.41;42.71;97115.06;6214677;23;20352;-77
2022/08/11 03:36:55;;;;;;;3.45;2.65;;;;;;;19.33;42.88;97118.84;6214215;23;20012;-77
2022/08/11 03:39:55;;;;;;;2.78;2.10;;;;;;;19.25;42.88;97122.59;6213952;23;20021;-77
2022/08/11 03:42:29;;;;;;;3.65;2.30;;;;;;;19.16;43.19;97123.94;6214649;23;20024;-77
2022/08/11 03:45:05;;;;;;;2.78;2.58;;;;;;;19.09;43.36;97117.94;6214135;23;20017;-77
2022/08/11 03:47:45;;;;;;;2.95;2.60;;;;;;;19.05;43.37;97116.75;6214528;23;20021;-78
2022/08/11 03:50:32;;;;;;;2.55;2.30;;;;;;;19.03;45.92;97116.97;6213795;23;20031;-77
2022/08/11 03:53:12;;;;;;;2.38;2.17;;;;;;;19.05;44.29;97117.56;6214714;23;20411;-77
2022/08/11 03:56:22;;;;;;;2.40;2.20;;;;;;;19.09;44.84;97115.28;6224547;23;20036;-78
2022/08/11 03:59:16;;;;;;;2.70;2.50;;;;;;;19.12;44.79;97117.47;6232060;23;20032;-76
2022/08/11 04:02:15;;;;;;;4.63;2.50;;;;;;;19.13;44.96;97111.97;6232774;23;20021;-77
2022/08/11 04:05:18;;;;;;;3.45;2.50;;;;;;;19.16;45.35;97110.72;6214180;23;20507;-77
2022/08/11 04:08:14;;;;;;;2.50;2.30;;;;;;;19.16;44.71;97112.56;6214196;23;20059;-77
2022/08/11 04:11:19;;;;;;;4.90;2.55;;;;;;;19.07;44.04;97115.50;6213611;23;20091;-77
2022/08/11 04:17:18;;;;;;;4.28;2.65;;;;;;;18.98;44.29;97105.44;6212558;23;20063;-78
2022/08/11 04:20:22;;;;;;;2.53;2.33;;;;;;;18.98;45.51;97108.09;6213856;23;20042;-79
2022/08/11 04:23:17;;;;;;;2.47;2.22;;;;;;;18.98;46.01;97114.22;6214240;23;20099;-78
2022/08/11 04:26:36;;;;;;;2.55;2.25;;;;;;;18.99;46.37;97110.53;6207287;23;20017;-79
2022/08/11 04:29:18;;;;;;;3.25;2.45;;;;;;;18.99;45.83;97107.06;6214539;23;20075;-79
2022/08/11 04:32:04;;;;;;;2.78;2.53;;;;;;;19.01;46.45;97116.41;6215030;23;20037;-78
2022/08/11 04:34:51;;;;;;;3.10;2.65;;;;;;;19.02;45.47;97114.53;6214762;23;20025;-78
2022/08/11 04:37:41;;;;;;;4.50;2.90;;;;;;;19.04;45.53;97121.22;6214415;23;20035;-78
2022/08/11 04:40:42;;;;;;;3.05;2.78;;;;;;;19.10;45.45;97116.91;6200611;23;20048;-77
2022/08/11 04:44:06;;;;;;;2.90;2.65;;;;;;;19.12;46.28;97117.47;6213734;23;20027;-77
2022/08/11 04:46:41;;;;;;;;;;;;;;;19.14;45.25;97115.41;6214697;23;20075;-78
2022/08/11 05:56:58;;;;;;;4.20;2.50;;;;;;;19.65;44.75;97129.97;6215740;23;20062;-76
2022/08/11 05:59:28;;;;;;;2.92;2.50;;;;;;;19.70;44.62;97129.31;6216113;23;20025;-76
2022/08/11 06:02:02;;;;;;;2.75;2.53;;;;;;;19.76;44.71;97123.91;6215745;23;20024;-76
2022/08/11 06:04:31;;;;;;;6.22;2.88;;;;;;;19.82;44.37;97119.56;6215474;23;20028;-76
2022/08/11 06:07:01;;;;;;;6.43;2.33;;;;;;;19.89;44.36;97117.59;6215744;23;20047;-76
2022/08/11 06:09:32;;;;;;;3.10;2.80;;;;;;;19.97;44.17;97116.47;6215728;23;20491;-76
2022/08/11 06:12:03;;;;;;;3.17;2.67;;;;;;;20.02;44.09;97121.88;6215601;23;20025;-76
2022/08/11 06:14:33;;;;;;;2.63;2.40;;;;;;;20.11;43.92;97120.50;6215979;23;20025;-76
2022/08/11 06:17:05;;;;;;;4.25;2.40;;;;;;;20.17;43.96;97122.22;6216004;23;20025;-76
2022/08/11 06:19:38;;;;;;;3.05;2.22;;;;;;;20.26;44.01;97121.91;6215823;23;20104;-76
2022/08/11 06:22:10;;;;;;;2.33;2.22;;;;;;;20.33;43.58;97127.88;6215119;23;20063;-76
2022/08/11 06:24:40;;;;;;;4.40;2.35;;;;;;;20.41;43.56;97130.19;6215703;23;20107;-76
2022/08/11 06:27:08;;;;;;;4.32;2.25;;;;;;;20.50;43.54;97134.09;6215303;23;20052;-76
2022/08/11 06:29:49;;;;;;;2.50;2.25;;;;;;;20.57;43.06;97134.81;6215815;23;20103;-76
2022/08/11 06:32:27;;;;;;;4.72;2.17;;;;;;;20.66;42.84;97134.44;6215615;23;20058;-76
2022/08/11 06:35:08;;;;;;;4.40;2.65;;;;;;;20.73;42.54;97143.91;6215776;23;20025;-76
2022/08/11 06:37:45;;;;;;;2.83;2.55;;;;;;;20.81;42.45;97141.91;6216297;23;20412;-76
2022/08/11 06:40:31;;;;;;;4.22;2.90;;;;;;;20.88;42.26;97140.75;6215352;23;20055;-76
2022/08/11 06:43:05;;;;;;;3.78;2.60;;;;;;;20.98;42.13;97130.34;6215701;23;20032;-76
2022/08/11 06:45:40;;;;;;;2.60;2.25;;;;;;;21.07;42.08;97133.44;6215182;23;20021;-76
2022/08/11 06:48:16;;;;;;;4.60;2.17;;;;;;;21.16;41.79;97137.31;6215805;23;20472;-76
2022/08/11 06:53:36;;;;;;;3.70;2.50;;;;;;;21.32;41.66;97134.97;6215291;23;20368;-77
2022/08/11 07:01:46;;;;;;;5.05;2.42;;;;;;;21.62;40.92;97137.38;6214860;23;20051;-76
2022/08/11 07:04:24;;;;;;;4.40;2.22;;;;;;;21.70;40.50;97147.63;6215282;23;20355;-76
2022/08/11 07:16:16;;;;;;;4.32;2.22;;;;;;;22.00;39.82;97139.34;6215340;23;20023;-76
2022/08/11 07:30:21;;;;;;;2.70;2.50;;;;;;;22.45;38.70;97131.53;6215860;23;20079;-76
2022/08/11 07:32:52;;;;;;;4.00;2.40;;;;;;;22.54;38.55;97130.06;6216208;23;20040;-76
2022/08/11 07:35:25;;;;;;;3.35;2.20;;;;;;;22.62;38.19;97127.78;6215424;23;20044;-76
2022/08/11 07:37:58;;;;;;;5.18;2.45;;;;;;;22.74;38.26;97135.66;6215562;23;20078;-76
2022/08/11 07:40:30;;;;;;;2.42;2.10;;;;;;;22.82;37.85;97127.22;6215142;23;20103;-77
2022/08/11 07:43:00;;;;;;;5.45;2.85;;;;;;;22.92;38.06;97129.22;6215263;23;20044;-76
2022/08/11 07:53:49;;;;;;;5.60;2.15;;;;;;;23.40;37.15;97127.66;6217572;23;20025;-76
2022/08/11 07:56:33;;;;;;;3.00;2.08;;;;;;;23.52;36.84;97124.03;6215372;23;20499;-76
2022/08/11 08:19:06;;;;;;;3.67;2.47;;;;;;;24.22;34.46;97115.03;6217696;23;20074;-77
2022/08/11 08:21:34;;;;;;;3.85;2.42;;;;;;;24.25;34.76;97117.19;6222076;23;20043;-76
2022/08/11 08:24:03;;;;;;;3.33;2.15;;;;;;;24.32;34.71;97119.66;6222120;23;20052;-76
2022/08/11 08:32:09;;;;;;;2.85;1.85;;;;;;;24.63;34.24;97115.31;6214968;23;20024;-76
2022/08/11 08:34:39;;;;;;;5.38;1.88;;;;;;;24.73;34.28;97111.06;6214548;23;20079;-76
2022/08/11 08:37:07;;;;;;;5.00;1.83;;;;;;;24.84;34.17;97108.22;6215234;23;20025;-76
2022/08/11 08:39:57;;;;;;;7.85;2.03;;;;;;;24.95;33.47;97117.06;6218343;23;20076;-76
2022/08/11 08:42:28;;;;;;;3.80;2.17;;;;;;;25.00;32.49;97117.06;6238442;23;20021;-76
2022/08/11 08:45:00;;;;;;;2.50;1.70;;;;;;;25.04;32.58;97112.81;6237726;23;20028;-76
2022/08/11 08:47:29;;;;;;;5.80;1.77;;;;;;;25.11;32.17;97117.09;6220770;23;20067;-77
2022/08/11 08:50:13;;;;;;;3.80;1.58;;;;;;;25.20;32.19;97104.88;6218189;23;20195;-76
2022/08/11 08:52:50;;;;;;;2.78;1.55;;;;;;;25.33;32.02;97109.72;6217586;23;20024;-76
2022/08/11 08:55:20;;;;;;;6.63;1.90;;;;;;;25.43;31.46;97114.25;6217285;23;20086;-76
2022/08/11 08:57:53;;;;;;;4.60;1.75;;;;;;;25.49;30.77;97114.03;6216739;23;20016;-77
2022/08/11 09:00:21;;;;;;;2.83;1.50;;;;;;;25.59;31.28;97107.09;6216292;23;20021;-76
2022/08/11 09:02:51;;;;;;;3.38;1.73;;;;;;;25.66;30.50;97115.63;6216995;23;20408;-76
2022/08/11 09:05:20;;;;;;;3.58;1.67;;;;;;;25.70;30.19;97124.72;6216774;23;20100;-76
2022/08/11 09:07:52;;;;;;;2.17;1.90;;;;;;;25.77;30.17;97119.91;6216370;23;20457;-76
2022/08/11 09:10:20;;;;;;;2.85;1.50;;;;;;;25.84;29.87;97125.78;6216296;23;20032;-76
2022/08/11 09:12:50;;;;;;;2.72;1.80;;;;;;;25.88;29.45;97116.19;6216253;23;20059;-76
2022/08/11 09:15:19;;;;;;;4.15;1.50;;;;;;;25.96;29.57;97116.75;6216360;23;20031;-76
2022/08/11 09:17:48;;;;;;;2.70;1.50;;;;;;;26.00;29.15;97120.47;6216551;23;20017;-76
2022/08/11 09:20:19;;;;;;;1.70;1.48;;;;;;;26.05;28.96;97115.13;6216139;23;20048;-76
2022/08/11 09:28:43;;;;;;;2.72;1.60;;;;;;;26.31;28.46;97119.38;6216204;23;20052;-76
2022/08/11 09:31:12;;;;;;;1.58;1.42;;;;;;;26.39;28.33;97125.25;6216145;23;20055;-77
2022/08/11 09:33:42;;;;;;;2.58;1.35;;;;;;;26.45;28.00;97124.16;6216602;23;20020;-76
2022/08/11 09:41:45;;;;;;;1.77;1.35;;;;;;;26.48;27.25;97129.00;6216895;23;20055;-78
2022/08/11 09:44:46;;;;;;;1.58;1.20;;;;;;;26.49;26.42;97126.03;6216379;23;20020;-77
2022/08/11 09:47:22;;;;;;;5.80;1.30;;;;;;;26.56;26.79;97125.75;6216218;23;20023;-77
2022/08/11 09:49:53;;;;;;;1.90;1.20;;;;;;;26.63;26.67;97118.28;6217099;23;20021;-77
2022/08/11 09:52:23;;;;;;;1.30;1.08;;;;;;;26.73;26.61;97113.97;6216490;23;20031;-77
2022/08/11 09:54:52;;;;;;;2.08;1.55;;;;;;;26.78;26.09;97105.91;6217416;23;20384;-78
2022/08/11 10:00:10;;;;;;;2.40;1.40;;;;;;;26.90;25.01;97103.72;6215838;23;20360;-77
2022/08/11 10:02:43;;;;;;;5.95;1.40;;;;;;;26.98;25.32;97100.44;6216519;23;20042;-78
2022/08/11 10:08:01;;;;;;;9.60;1.30;;;;;;;27.11;25.55;97115.94;6215556;23;20039;-78
2022/08/11 10:10:33;;;;;;;2.47;1.20;;;;;;;27.09;25.60;97102.03;6215864;23;20355;-78
2022/08/11 10:13:04;;;;;;;2.38;1.40;;;;;;;27.08;25.42;97089.69;6216684;23;20348;-77
2022/08/11 10:15:56;;;;;;;3.85;1.38;;;;;;;27.15;25.00;97091.28;6215830;23;20017;-78
2022/08/11 10:18:48;;;;;;;2.92;1.30;;;;;;;27.24;25.32;97092.31;6216088;23;20023;-77
2022/08/11 10:21:27;;;;;;;1.25;1.13;;;;;;;27.30;25.36;97088.53;6215981;23;20048;-79
2022/08/11 10:26:54;;;;;;;3.80;1.17;;;;;;;27.38;24.20;97085.28;6215828;23;20507;-78
2022/08/11 10:35:26;;;;;;;2.80;1.35;;;;;;;27.48;24.99;97077.16;6215966;23;20090;-78
2022/08/11 10:37:55;;;;;;;4.00;1.20;;;;;;;27.52;24.87;97072.84;6216074;23;20071;-77
2022/08/11 10:40:39;;;;;;;1.48;1.00;;;;;;;27.57;24.56;97063.94;6216068;23;20028;-77
2022/08/11 10:43:12;;;;;;;1.30;1.10;;;;;;;27.60;23.09;97086.72;6216149;23;20035;-77
2022/08/11 10:48:38;;;;;;;0.80;0.80;;;;;;;27.65;23.20;97070.59;6216218;23;20024;-78
2022/08/11 10:51:13;;;;;;;2.53;1.00;;;;;;;27.67;23.71;97073.81;6234214;23;20035;-78
2022/08/11 10:59:16;;;;;;;1.25;0.95;;;;;;;27.80;23.87;97051.72;6217719;23;20036;-78
2022/08/11 11:01:46;;;;;;;2.90;1.15;;;;;;;27.85;23.91;97043.66;6216962;23;20055;-78
2022/08/11 11:04:17;;;;;;;3.95;1.27;;;;;;;27.91;23.56;97065.84;6216854;23;20052;-79
2022/08/11 11:06:50;;;;;;;2.13;1.13;;;;;;;27.88;23.32;97053.81;6216134;23;20020;-78
2022/08/11 11:09:22;;;;;;;1.35;1.00;;;;;;;27.90;23.82;97040.94;6216818;23;20314;-78
2022/08/11 11:20:22;;;;;;;0.95;0.93;;;;;;;28.10;23.49;97036.47;6215583;23;20049;-78
2022/08/11 11:23:07;;;;;;;5.03;1.13;;;;;;;28.13;23.51;97041.25;6215837;23;20024;-78
2022/08/11 11:26:05;;;;;;;1.25;1.08;;;;;;;28.14;23.49;97029.41;6216540;23;20048;-78
2022/08/11 11:28:49;;;;;;;2.38;1.17;;;;;;;28.18;23.21;97025.09;6217848;23;20043;-78
2022/08/11 11:31:30;;;;;;;1.73;1.02;;;;;;;28.28;23.17;97034.91;6217980;23;20052;-78
2022/08/11 11:34:12;;;;;;;1.00;1.00;;;;;;;28.34;22.95;97045.31;6218211;23;20024;-79
2022/08/11 11:36:45;;;;;;;;;;;;;;;28.38;23.31;97031.31;6218246;23;20032;-80
2022/08/11 11:39:13;;;;;;;3.17;1.15;;;;;;;28.36;22.97;97015.53;6223449;23;19920;-79
2022/08/11 11:41:42;;;;;;;1.58;1.00;;;;;;;28.40;23.05;97031.81;6233247;23;20051;-77
2022/08/11 11:44:13;;;;;;;2.53;1.02;;;;;;;28.43;22.71;97025.91;6222334;23;20027;-79
2022/08/11 11:46:44;;;;;;;5.03;1.55;;;;;;;28.41;21.92;97028.88;6214480;23;20032;-79
2022/08/11 11:49:14;;;;;;;1.37;0.90;;;;;;;28.41;22.54;97022.72;6214636;23;20052;-79
2022/08/11 11:51:46;;;;;;;1.05;0.75;;;;;;;28.42;22.67;97018.91;6214337;23;20024;-78
2022/08/11 11:54:21;;;;;;;1.27;1.17;;;;;;;28.43;22.68;97026.69;6214496;23;20021;-79
2022/08/11 11:56:52;;;;;;;2.92;1.02;;;;;;;28.44;22.40;97016.75;6214372;23;20021;-79
2022/08/11 12:02:07;;;;;;;2.35;1.13;;;;;;;28.52;22.62;97019.63;6213973;23;20527;-78
2022/08/11 12:04:42;;;;;;;2.97;1.08;;;;;;;28.58;22.60;97025.75;6214559;23;20021;-79
2022/08/11 12:09:58;;;;;;;2.30;0.88;;;;;;;28.54;22.14;97014.00;6214036;23;20468;-79
2022/08/11 12:15:17;;;;;;;6.40;1.25;;;;;;;28.49;21.31;97012.16;6175902;23;20397;-79
2022/08/11 12:18:05;;;;;;;1.33;1.00;;;;;;;28.46;21.81;97017.28;6215372;23;20372;-79
2022/08/11 12:20:33;;;;;;;0.90;0.80;;;;;;;28.45;21.92;96997.69;6216383;23;20083;-79
2022/08/11 12:28:51;;;;;;;1.88;1.17;;;;;;;28.55;21.66;97002.16;6215690;23;20021;-79
2022/08/11 12:31:21;;;;;;;1.30;1.00;;;;;;;28.52;21.80;96989.31;6216151;23;20082;-79
2022/08/11 12:33:49;;;;;;;2.30;1.15;;;;;;;28.50;21.51;96999.53;6216173;23;20016;-78
2022/08/11 12:36:18;;;;;;;1.30;1.13;;;;;;;28.48;21.44;96989.09;6216194;23;20025;-79
2022/08/11 12:38:50;;;;;;;4.90;1.15;;;;;;;28.49;21.18;96988.00;6216350;23;20048;-79
2022/08/11 12:46:57;;;;;;;2.35;0.80;;;;;;;28.52;21.58;96982.06;6216616;23;20025;-79
2022/08/11 12:52:20;;;;;;;2.70;1.25;;;;;;;28.57;21.57;96959.72;6216171;23;20082;-79
2022/08/11 12:54:58;;;;;;;2.72;0.90;;;;;;;28.61;21.96;96957.28;6216269;23;20055;-78
2022/08/11 13:05:53;;;;;;;2.00;1.08;;;;;;;28.63;21.79;96963.94;6216078;23;20056;-78
2022/08/11 13:08:23;;;;;;;2.72;1.23;;;;;;;28.66;21.57;96955.28;6215735;23;20013;-79
2022/08/11 13:13:41;;;;;;;1.48;1.10;;;;;;;28.63;21.73;96949.72;6216287;23;20029;-79
2022/08/11 13:16:25;;;;;;;2.85;1.67;;;;;;;28.63;22.83;96958.56;6216633;23;20028;-79
2022/08/11 13:18:53;;;;;;;1.30;1.10;;;;;;;28.66;21.89;96949.94;6215969;23;20059;-78
2022/08/11 13:21:22;;;;;;;1.52;1.10;;;;;;;28.67;22.05;96945.38;6215631;23;20044;-79
2022/08/11 13:23:53;;;;;;;5.13;1.10;;;;;;;28.66;22.05;96955.28;6215782;23;20394;-78
2022/08/11 13:26:34;;;;;;;2.53;1.17;;;;;;;28.63;21.72;96949.72;6216019;23;20020;-79
2022/08/11 13:29:17;;;;;;;1.23;0.88;;;;;;;28.59;21.69;96932.59;6214985;23;20465;-79
2022/08/11 13:31:45;;;;;;;3.20;1.25;;;;;;;28.57;21.94;96934.78;6215172;23;20040;-79
2022/08/11 13:34:15;;;;;;;5.53;1.20;;;;;;;28.59;22.12;96938.75;6215364;23;20028;-79
2022/08/11 13:36:43;;;;;;;1.00;1.00;;;;;;;28.60;21.98;96935.00;6216117;23;20032;-79
2022/08/11 13:39:12;;;;;;;1.00;1.00;;;;;;;28.59;21.59;96927.25;6215861;23;20086;-79
2022/08/11 13:41:44;;;;;;;1.33;1.23;;;;;;;28.57;21.71;96926.72;6215413;23;20024;-79
2022/08/11 13:44:16;;;;;;;1.15;1.00;;;;;;;28.56;21.73;96925.94;6215542;23;20020;-79
2022/08/11 13:46:52;;;;;;;1.10;0.95;;;;;;;28.54;21.83;96930.78;6215176;23;20017;-79
2022/08/11 13:49:21;;;;;;;4.10;1.30;;;;;;;28.50;21.90;96919.81;6215237;23;20460;-79
2022/08/11 13:51:50;;;;;;;2.00;1.30;;;;;;;28.50;21.90;96919.03;6215346;23;20017;-78
2022/08/11 13:54:22;;;;;;;1.88;1.50;;;;;;;28.52;21.79;96919.56;6215793;23;20094;-79
2022/08/11 13:56:54;;;;;;;2.15;1.10;;;;;;;28.53;21.76;96913.91;6215791;23;20024;-79
2022/08/11 13:59:24;;;;;;;2.65;1.02;;;;;;;28.54;22.17;96923.53;6217661;23;20027;-80
2022/08/11 14:02:02;;;;;;;3.97;1.10;;;;;;;28.56;22.35;96912.53;6216407;23;20055;-79
2022/08/11 14:04:55;;;;;;;3.75;1.00;;;;;;;28.57;21.86;96919.47;6215554;23;20026;-79
2022/08/11 14:07:25;;;;;;;3.13;1.23;;;;;;;28.57;21.99;96914.09;6215576;23;20044;-78
2022/08/11 14:09:57;;;;;;;4.25;1.10;;;;;;;28.56;22.03;96909.84;6214912;23;20091;-79
2022/08/11 14:15:19;;;;;;;2.10;0.90;;;;;;;28.57;21.35;96914.09;6215506;23;20398;-79
2022/08/11 14:17:52;;;;;;;1.65;1.15;;;;;;;28.57;21.44;96906.03;6215900;23;20020;-79
2022/08/11 14:20:20;;;;;;;2.13;1.27;;;;;;;28.54;21.44;96894.00;6214992;23;20020;-79
2022/08/11 14:23:09;;;;;;;3.38;1.20;;;;;;;28.54;21.91;96901.28;6215206;23;20016;-78
2022/08/11 14:26:22;;;;;;;3.40;1.20;;;;;;;28.54;21.99;96898.59;6214922;23;20019;-79
2022/08/11 14:28:33;;;;;;;1.60;1.15;;;;;;;28.55;22.27;96900.97;6214896;23;20031;-79
2022/08/11 14:31:12;;;;;;;4.78;1.35;;;;;;;28.58;22.18;96888.06;6215068;23;20055;-79
2022/08/11 14:33:41;;;;;;;1.33;1.23;;;;;;;28.62;22.30;96884.50;6215278;23;20025;-79
2022/08/11 14:36:30;;;;;;;2.80;1.00;;;;;;;28.65;21.68;96893.88;6215696;23;20039;-79
2022/08/11 14:38:59;;;;;;;3.20;1.17;;;;;;;28.65;21.66;96894.66;6214749;23;20021;-78
2022/08/11 14:47:23;;;;;;;3.50;1.30;;;;;;;28.60;22.09;96885.88;6215150;23;20435;-79
2022/08/11 14:49:54;;;;;;;0.80;0.80;;;;;;;28.58;21.75;96890.72;6214759;23;20031;-79
2022/08/11 14:52:43;;;;;;;1.20;1.10;;;;;;;28.56;22.03;96885.69;6214790;23;20476;-78
2022/08/11 14:57:58;;;;;;;2.65;1.35;;;;;;;28.55;21.80;96882.19;6215074;23;20024;-79
2022/08/11 15:00:28;;;;;;;3.10;1.52;;;;;;;28.54;21.99;96877.13;6214256;23;20464;-79
2022/08/11 15:03:11;;;;;;;3.60;1.27;;;;;;;28.53;21.66;96870.13;6215093;23;20016;-79
2022/08/11 15:05:46;;;;;;;2.42;0.75;;;;;;;28.53;21.66;96870.13;6214982;23;20031;-79
2022/08/11 15:12:07;;;;;;;2.42;1.15;;;;;;;28.55;21.49;96867.97;6213938;23;20020;-78
2022/08/11 15:13:59;;;;;;;2.30;0.90;;;;;;;28.55;20.87;96867.97;6214660;23;20075;-79
2022/08/11 15:19:15;;;;;;;3.55;1.23;;;;;;;28.54;21.10;96861.81;6214921;23;20096;-79
2022/08/11 15:24:29;;;;;;;3.42;1.08;;;;;;;28.52;20.88;96852.47;6214324;23;20091;-78
2022/08/11 15:38:34;;;;;;;3.10;1.67;;;;;;;28.42;21.61;96839.16;6122200;23;20521;-79
2022/08/11 15:46:44;;;;;;;3.80;1.33;;;;;;;28.42;21.17;96841.84;6218340;23;20479;-80
2022/08/11 15:49:17;;;;;;;2.40;1.48;;;;;;;28.40;21.23;96838.66;6226052;23;20048;-81
2022/08/11 15:51:55;;;;;;;3.00;1.83;;;;;;;28.39;21.42;96839.75;6228555;23;20016;-81
2022/08/11 15:54:31;;;;;;;3.10;1.33;;;;;;;28.35;21.59;96837.63;6222780;23;20030;-81
2022/08/11 15:57:01;;;;;;;1.92;1.50;;;;;;;28.37;21.98;96837.34;6216664;23;20027;-80
2022/08/11 16:05:13;;;;;;;2.38;0.98;;;;;;;28.37;22.04;96826.63;6215633;23;20021;-80
2022/08/11 16:08:02;;;;;;;5.45;1.20;;;;;;;28.37;21.55;96823.16;6214795;23;20016;-80
2022/08/11 16:10:31;;;;;;;1.17;1.08;;;;;;;28.36;21.83;96827.72;6215279;23;20017;-80
2022/08/11 16:18:41;;;;;;;1.55;1.02;;;;;;;28.30;21.11;96821.63;6214349;23;20464;-80
2022/08/11 16:21:13;;;;;;;3.35;1.10;;;;;;;28.27;20.97;96819.53;6213635;23;20021;-80
2022/08/11 16:24:05;;;;;;;0.98;0.88;;;;;;;28.27;21.04;96813.34;6215274;23;20031;-81
2022/08/11 16:26:37;;;;;;;1.10;1.00;;;;;;;28.25;21.48;96810.16;6214872;23;20020;-80
2022/08/11 16:29:35;;;;;;;2.35;1.25;;;;;;;28.23;21.18;96813.16;6214828;23;20356;-81
2022/08/11 16:32:17;;;;;;;3.58;1.38;;;;;;;28.21;21.57;96809.94;6214319;23;20071;-80
2022/08/11 16:40:22;;;;;;;1.30;1.20;;;;;;;28.17;21.64;96808.94;6222270;23;20068;-81
2022/08/11 16:48:30;;;;;;;2.78;1.02;;;;;;;28.08;21.18;96805.31;6214036;23;20051;-80
2022/08/11 16:51:06;;;;;;;1.42;1.33;;;;;;;28.04;21.96;96802.41;6213749;23;20075;-79
2022/08/11 16:53:37;;;;;;;1.42;1.10;;;;;;;28.02;21.51;96799.22;6214092;23;20024;-78
2022/08/11 16:56:28;;;;;;;6.43;1.80;;;;;;;28.00;21.87;96789.88;6213855;23;20104;-81
2022/08/11 16:59:14;;;;;;;3.20;1.00;;;;;;;27.99;22.33;96796.31;6214710;23;20044;-80
2022/08/11 17:01:51;;;;;;;1.27;1.17;;;;;;;27.98;21.91;96805.44;6213737;23;20027;-80
2022/08/11 17:13:35;;;;;;;2.42;1.15;;;;;;;27.87;22.11;96789.50;6154109;23;20017;-81
2022/08/11 17:16:10;;;;;;;4.00;1.40;;;;;;;27.86;22.94;96792.47;6208648;23;20036;-80
2022/08/11 17:18:44;;;;;;;2.83;1.60;;;;;;;27.82;25.50;96797.56;6217668;23;20020;-81
2022/08/11 17:21:16;;;;;;;6.60;2.05;;;;;;;27.80;24.22;96794.38;6217833;23;20024;-81
2022/08/11 17:23:46;;;;;;;2.85;1.38;;;;;;;27.76;23.66;96796.03;6217684;23;20024;-81
2022/08/11 17:26:19;;;;;;;2.25;1.30;;;;;;;27.73;24.30;96793.94;6218734;23;20016;-80